Anselmo, Nebraska
Current Conditions -  °F | °C
As of 2:13 AM on Friday 31 Oct 2014 (Local Time) from KBBW Reporting Station
Overcast Overcast  
Wind Chill: -5°   Ceiling: 1000
Heat Index:   Visibility: 10mi
Dew Point: -2°   Wind: 13mph
Humidity: 85%   Direction: 10°N
Pressure: 30.48"   Gusts: 21mph
Location:  41.62°N, 99.87°W
Report Text: KBBW 310713Z AUTO 01011G18KT 10SM OVC010 01/M02 A3048 RMK AO2 T00061017
Loading
Personal Weather Stations






























Interactive Weather Map
Tropical Storm Tracking
New forecast layout! Learn more

10-Day Weather Forecast

Advertisements
Track Severe Weather on mobile